Dalby, Iowa
Current Conditions -  °F | °C
As of 6:35 PM on Monday 22 Dec 2014 (Local Time) from KPDC Reporting Station
Haze Haze  
Wind Chill: 29°   Ceiling: 800
Heat Index: 36°   Visibility: 4mi
Dew Point: 34°   Wind: 9mph
Humidity: 92%   Direction: 90°E
Pressure: 29.59"   Gusts: NA
Location:  43.2691°N, 91.2611°W
Report Text: KPDC 230035Z AUTO 09008KT 4SM BR OVC008 02/01 A2959 RMK AO2 T00220010
Loading
Personal Weather Stations






























Interactive Weather Map New forecast layout! Learn more

10-Day Weather Forecast

Advertisements
Track Severe Weather on mobile